Cooper, Maine
Current Conditions -  °F | °C
As of 4:15 AM on Sunday 21 Dec 2014 (Local Time) from KBHB Reporting Station
Overcast Overcast  
Wind Chill: 27°   Ceiling: 3500
Heat Index: 27°   Visibility: 10mi
Dew Point: 27°   Wind: 3mph
Humidity: 100%   Direction: 360°N
Pressure: 30.33"   Gusts: NA
Location:  44.9999°N, 67.3852°W
Report Text: KBHB 210915Z AUTO 36003KT 10SM OVC035 M03/M03 A3033 RMK AO1
Loading
Personal Weather Stations






























Interactive Weather Map New forecast layout! Learn more

10-Day Weather Forecast

Advertisements
Track Severe Weather on mobile